LIRNLIEE

Guest
Details From LIRN - Naples Capodichino
To LIEE - Cagliari Elmas
Flight Number -
Tags generated
Created
Modified
Stats Distance 264 nm / 489 km
Max Altitude 24,400 ft / 7,437 m
Waypoints 5
Social Downloads 2
Likes 0
Share VATSIM

Download

Looking for another format? Having issues loading an existing format? Contact us
Advertisement - Login to hide

Notes

Basic altitude profile: - Ascent Rate: 2000ft/min - Ascent Speed: 250kts - Cruise Altitude: 10000ft - Cruise Speed: 350kts - Descent Rate: 2000ft/min - Descent Speed: 250kts Options: - Use NATs: no - Use PACOTS: no - Use low airways: yes - Use high airways: no

Route

LIRN BEROL M159 BELOK LIEE

ID Type Via Altitude Latitude Longitude Leg Dist Tot Dist Heading (true) Name
O LIRN APT - 0 ft / 0 m 40.88603˚ 14.29078˚ - 0 nm - Naples Capodichino
BEROL FIX - 24,400 ft / 7,437 m 40.20472˚ 13.01306˚ 71 nm 71 nm 235° / 235° -
RONAB FIX M159 (AWY-LO) 18,500 ft / 5,639 m 39.86972˚ 11.89111˚ 55 nm 126 nm 249° / 248° -
BELOK FIX M159 (AWY-LO) 12,100 ft / 3,688 m 39.38972˚ 10.36083˚ 76 nm 203 nm 248° / 247° -
O LIEE APT - 0 ft / 0 m 39.25147˚ 9.05429˚ 61 nm 264 nm 263° / 262° Cagliari Elmas

Altitude Profile

Advertisement - Login to hide

Weather


0- 5 10 15 20 25 30 35+ Temperature / ° C

Clouds and Precipitation
Forecast for 2018-05-23 12:00 UTC. Updated 41 minutes ago

Ground ~20,000 ft ~40,000 ft Winds

LIRN

Details ICAO LIRN (NAP)
Name Naples Capodichino
Region Italy
Timezone Europe/Rome (UTC+2.0)
Stats Elevation 294 ft / 90 m (AMSL)
Location 40.886032° 14.290783°
Runways 1
Magnetic Variation 3.353° E

METAR

LIRN 231120Z 24008KT 210V280 9999 SCT015 BKN030 19/16 Q1015 NOSIG

Decode

TAF

TAF LIRN 230500Z 2306/2406 VRB05KT 9999 SCT030 TEMPO 2306/2309 TSRA

Decode

Departure Runways

ID Width Length Bearing (true) Bearing (mag) Surface Threshold Offset Overrun Length
06 148 ft / 45 m 8,612 ft / 2,625 m 58.03° 54.68° Asphalt 1,309 ft / 399 m 0 ft / 0 m
24 148 ft / 45 m 8,612 ft / 2,625 m 238.05° 234.70° Asphalt 624 ft / 190 m 0 ft / 0 m

LIEE

Details ICAO LIEE (CAG)
Name Cagliari Elmas
Region Italy
Timezone Europe/Rome (UTC+2.0)
Stats Elevation 13 ft / 4 m (AMSL)
Location 39.251475° 9.054291°
Runways 1
Magnetic Variation 2.342° E

METAR

LIEE 231120Z 34011KT 9999 FEW035 25/13 Q1017

Decode

TAF

TAF LIEE 230500Z 2306/2406 33008KT 9999 SCT030= TAF LIPB 230500Z 2306/2406 VRB06KT 9999 SCT030 TEMPO 2312/2318 TSRA

Decode

Destination Runways

ID Width Length Bearing (true) Bearing (mag) Surface Threshold Offset Overrun Length
14 148 ft / 45 m 9,157 ft / 2,791 m 138.08° 135.74° Asphalt 0 ft / 0 m 187 ft / 57 m
32 148 ft / 45 m 9,157 ft / 2,791 m 318.09° 315.75° Asphalt 0 ft / 0 m 0 ft / 0 m

Approach Navaids

Runway Type Ident Frequency Range Bearing (true) Bearing (mag) Slope Elevation
32 Localiser IEL 109.50 MHz 18 nm / 33 km 318.12° 315.77° - 7 ft / 2 m (AMSL)
32 Glidescope IEL 109.50 MHz 10 nm / 19 km 318.08° 315.74° 3.00° 9 ft / 3 m (AMSL)
32 DME IEL 109.50 MHz 18 nm / 33 km - - - 26 ft / 8 m (AMSL)

Popular Alternatives